Time;durP1;ratioP1;P1;durP2;ratioP2;P2;SDS_P1;SDS_P2;PMS_P1;PMS_P2;Temp;Humidity;BMP_temperature;BMP_pressure;BME280_temperature;BME280_humidity;BME280_pressure;Samples;Min_cycle;Max_cycle;Signal;HPM_P1;HPM_P2
2022/02/05 00:04:51;;;;;;;89.28;60.70;;;9.10;99.90;;;;;;5049467;28;20036;-84
2022/02/05 00:08:11;;;;;;;94.32;61.08;;;9.10;99.90;;;;;;5085406;28;20714;-84
2022/02/05 00:40:15;;;;;;;95.03;53.40;;;9.40;99.90;;;;;;5070720;28;20553;-84
2022/02/05 00:42:53;;;;;;;97.15;60.05;;;9.30;99.90;;;;;;5066346;28;20428;-85
2022/02/05 00:46:00;;;;;;;77.95;55.10;;;9.20;99.90;;;;;;5082826;28;20040;-84
2022/02/05 00:59:17;;;;;;;76.05;48.10;;;9.50;99.90;;;;;;4857279;29;20056;-84
2022/02/05 01:06:13;;;;;;;70.50;46.20;;;9.50;99.90;;;;;;4784886;29;20046;-84
2022/02/05 01:16:43;;;;;;;;;;;;;;;;;;;;;
2022/02/05 01:30:32;;;;;;;54.38;35.97;;;9.30;99.90;;;;;;4700491;30;20119;-84
2022/02/05 01:33:47;;;;;;;56.85;32.40;;;9.40;99.90;;;;;;4783416;29;20134;-85
2022/02/05 01:50:23;;;;;;;60.95;34.72;;;9.30;99.90;;;;;;4832956;29;20049;-83
2022/02/05 02:10:36;;;;;;;;;;;;;;;;;;;;;
2022/02/05 04:03:06;;;;;;;71.78;44.33;;;9.60;99.90;;;;;;5007240;28;20105;-89
2022/02/05 04:06:24;;;;;;;75.22;44.03;;;9.70;99.90;;;;;;5007731;28;20030;-88
2022/02/05 04:09:56;;;;;;;;;;;;;;;;;;;;;
2022/02/05 04:23:23;;;;;;;80.80;42.75;;;9.70;99.90;;;;;;4915701;29;20518;-89
2022/02/05 04:26:44;;;;;;;67.05;40.70;;;9.80;99.90;;;;;;4915546;29;20036;-89
2022/02/05 04:59:43;;;;;;;74.43;42.25;;;9.50;99.90;;;;;;4986518;28;20405;-89
2022/02/05 05:04:34;;;;;;;83.20;43.65;;;9.50;99.90;;;;;;4928392;28;20446;-88
2022/02/05 05:31:26;;;;;;;92.25;48.83;;;9.30;99.90;;;;;;4943727;29;20086;-89
2022/02/05 05:54:31;;;;;;;124.15;71.78;;;9.10;99.90;;;;;;4852884;29;20025;-89
2022/02/05 06:03:45;;;;;;;134.00;62.75;;;8.90;99.90;;;;;;4984491;28;20480;-88
2022/02/05 06:10:06;;;;;;;114.18;62.63;;;8.70;99.90;;;;;;4986853;28;20029;-89
2022/02/05 06:33:34;;;;;;;;;;;;;;;;;;;;;
2022/02/05 06:37:21;;;;;;;;;;;;;;;;;;;;;
2022/02/05 06:43:23;;;;;;;107.53;60.97;;;8.80;99.90;;;;;;4910267;29;20035;-88
2022/02/05 06:46:26;;;;;;;94.18;58.78;;;8.80;99.90;;;;;;4982742;28;20545;-88
2022/02/05 06:48:58;;;;;;;95.07;58.88;;;8.80;99.90;;;;;;4987345;28;20115;-88
2022/02/05 06:52:03;;;;;;;94.93;56.53;;;8.90;99.90;;;;;;5014266;28;20052;-88
2022/02/05 06:54:29;;;;;;;85.18;52.72;;;8.90;99.90;;;;;;5029425;28;20040;-89
2022/02/05 06:57:02;;;;;;;72.13;49.22;;;9.00;99.90;;;;;;5027358;28;20054;-88
2022/02/05 07:00:22;;;;;;;70.45;44.10;;;9.10;99.90;;;;;;5060565;28;20025;-91
2022/02/05 07:02:50;;;;;;;73.95;40.40;;;9.20;99.90;;;;;;5001644;28;20034;-88
2022/02/05 07:05:22;;;;;;;59.47;39.20;;;9.40;99.90;;;;;;4988420;28;20065;-86
2022/02/05 07:07:54;;;;;;;66.95;40.85;;;9.50;99.90;;;;;;5052959;28;20151;-89
2022/02/05 07:10:29;;;;;;;61.13;38.65;;;9.60;99.90;;;;;;5059188;28;20021;-86
2022/02/05 07:13:19;;;;;;;57.90;36.92;;;9.70;99.90;;;;;;5066966;28;20082;-89
2022/02/05 07:19:47;;;;;;;58.08;37.17;;;9.80;99.90;;;;;;5035996;28;20078;-88
2022/02/05 07:34:47;;;;;;;97.25;66.10;;;9.90;99.90;;;;;;5022947;28;20024;-86
2022/02/05 07:37:17;;;;;;;42.70;28.73;;;9.90;99.90;;;;;;5022174;28;20033;-85
2022/02/05 07:39:48;;;;;;;45.95;28.33;;;9.90;99.90;;;;;;5065978;28;20044;-87
2022/02/05 07:42:22;;;;;;;42.97;29.40;;;10.00;99.90;;;;;;5061259;28;20627;-89
2022/02/05 07:44:49;;;;;;;35.55;27.77;;;10.00;99.90;;;;;;5058196;28;20033;-88
2022/02/05 07:47:24;;;;;;;60.13;40.63;;;10.20;99.90;;;;;;5082522;28;20444;-89
2022/02/05 07:50:19;;;;;;;49.53;31.67;;;10.30;99.90;;;;;;5079620;28;20044;-83
2022/02/05 07:52:48;;;;;;;53.75;28.52;;;10.40;99.90;;;;;;5077175;28;20067;-82
2022/02/05 07:55:14;;;;;;;41.88;26.35;;;10.40;99.90;;;;;;5083654;28;20032;-83
2022/02/05 07:58:11;;;;;;;37.15;26.02;;;10.40;99.90;;;;;;5083211;28;20387;-83
2022/02/05 08:00:47;;;;;;;44.80;30.38;;;10.40;99.90;;;;;;5082025;28;20034;-85
2022/02/05 08:03:45;;;;;;;57.25;34.38;;;10.40;99.90;;;;;;5079039;28;20497;-84
2022/02/05 08:12:47;;;;;;;62.10;38.50;;;10.70;99.90;;;;;;5083557;28;20104;-87
2022/02/05 08:15:23;;;;;;;60.08;36.35;;;10.80;99.90;;;;;;5070905;28;20040;-87
2022/02/05 08:17:58;;;;;;;65.20;37.22;;;10.90;99.90;;;;;;5091845;28;20043;-84
2022/02/05 08:20:27;;;;;;;75.30;42.03;;;11.00;99.90;;;;;;5092681;28;20042;-84
2022/02/05 08:22:59;;;;;;;67.75;43.22;;;11.20;99.90;;;;;;5089003;28;20073;-83
2022/02/05 08:25:28;;;;;;;68.40;39.07;;;11.20;99.90;;;;;;5090710;28;20032;-80
2022/02/05 08:27:54;;;;;;;62.42;37.47;;;11.40;99.90;;;;;;5089423;28;20277;-84
2022/02/05 08:30:20;;;;;;;66.93;38.08;;;11.50;99.90;;;;;;5085777;28;20017;-82
2022/02/05 08:33:21;;;;;;;53.92;34.78;;;11.60;99.90;;;;;;5091426;28;20024;-81
2022/02/05 08:35:50;;;;;;;64.15;35.40;;;11.70;99.90;;;;;;5081403;28;20429;-83
2022/02/05 08:38:17;;;;;;;54.78;33.90;;;11.80;99.90;;;;;;5084516;28;20044;-84
2022/02/05 08:40:46;;;;;;;65.03;34.83;;;11.90;99.90;;;;;;5082707;28;20114;-82
2022/02/05 08:43:18;;;;;;;57.00;34.97;;;11.90;99.90;;;;;;5091544;28;20051;-80
2022/02/05 08:45:43;;;;;;;59.38;35.90;;;12.00;99.90;;;;;;5072957;28;20483;-85
2022/02/05 08:48:12;;;;;;;60.72;33.17;;;12.10;99.90;;;;;;5089606;28;20062;-84
2022/02/05 08:50:41;;;;;;;46.28;29.30;;;12.20;99.90;;;;;;5082763;28;20058;-83
2022/02/05 08:53:11;;;;;;;56.65;34.33;;;12.30;99.90;;;;;;5090821;28;20027;-89
2022/02/05 08:55:37;;;;;;;42.85;28.58;;;12.40;99.90;;;;;;5073197;28;20024;-83
2022/02/05 08:58:08;;;;;;;37.75;26.15;;;12.50;99.90;;;;;;5076756;28;20028;-83
2022/02/05 09:00:42;;;;;;;53.65;33.17;;;12.70;99.90;;;;;;5080556;28;20017;-83
2022/02/05 09:03:12;;;;;;;38.42;26.90;;;12.70;99.90;;;;;;5087647;28;20032;-82
2022/02/05 09:05:46;;;;;;;47.47;26.17;;;12.90;99.90;;;;;;5082738;28;20020;-82
2022/02/05 09:08:40;;;;;;;42.30;27.63;;;13.00;99.90;;;;;;5074243;28;20141;-83
2022/02/05 09:11:35;;;;;;;39.00;24.85;;;13.20;99.90;;;;;;5083582;28;20024;-83
2022/02/05 09:16:36;;;;;;;41.35;24.08;;;13.20;99.90;;;;;;5085207;28;20031;-82
2022/02/05 09:19:03;;;;;;;43.40;24.83;;;13.20;99.90;;;;;;5071874;28;20063;-83
2022/02/05 09:21:31;;;;;;;36.40;21.77;;;13.20;99.90;;;;;;5072466;28;20071;-83
2022/02/05 09:23:59;;;;;;;37.05;21.98;;;13.30;99.90;;;;;;5077522;28;20024;-83
2022/02/05 09:26:26;;;;;;;32.95;19.25;;;13.40;99.90;;;;;;5083260;28;20016;-82
2022/02/05 09:29:02;;;;;;;29.92;19.13;;;13.60;99.90;;;;;;5058053;28;20592;-83
2022/02/05 09:31:36;;;;;;;33.05;17.90;;;13.60;99.90;;;;;;5070563;28;20056;-83
2022/02/05 09:34:06;;;;;;;27.70;15.95;;;13.80;99.90;;;;;;5075007;28;20066;-82
2022/02/05 09:36:34;;;;;;;36.67;18.30;;;13.90;99.90;;;;;;5062379;28;20498;-83
2022/02/05 09:39:00;;;;;;;24.40;12.85;;;13.80;99.90;;;;;;5070011;28;20150;-82
2022/02/05 09:41:27;;;;;;;24.25;16.23;;;13.60;99.90;;;;;;5077695;28;20028;-82
2022/02/05 09:43:53;;;;;;;37.22;17.35;;;13.40;99.90;;;;;;5072345;28;20020;-82
2022/02/05 09:46:21;;;;;;;33.53;21.13;;;13.50;99.90;;;;;;5082030;28;20093;-82
2022/02/05 09:48:49;;;;;;;31.50;18.33;;;13.60;99.90;;;;;;5073739;28;20027;-82
2022/02/05 09:51:34;;;;;;;29.63;15.05;;;13.60;99.90;;;;;;5083294;28;20062;-81
2022/02/05 09:54:01;;;;;;;27.52;15.25;;;13.40;99.90;;;;;;5076590;28;20066;-82
2022/02/05 09:56:38;;;;;;;39.05;20.75;;;13.30;99.90;;;;;;5084199;28;20552;-82
2022/02/05 09:59:05;;;;;;;32.10;19.45;;;13.10;99.90;;;;;;5075951;28;20513;-82
2022/02/05 10:01:37;;;;;;;29.65;16.83;;;12.90;99.90;;;;;;5084426;28;20029;-81
2022/02/05 10:04:07;;;;;;;40.65;24.10;;;13.00;99.90;;;;;;5075061;28;20028;-82
2022/02/05 10:06:41;;;;;;;43.55;25.63;;;13.20;99.90;;;;;;5071890;28;20024;-81
2022/02/05 10:09:11;;;;;;;44.50;26.25;;;13.10;99.90;;;;;;5075792;28;20093;-82
2022/02/05 10:11:50;;;;;;;38.28;23.73;;;13.10;99.90;;;;;;5086003;28;20020;-81
2022/02/05 10:14:55;;;;;;;40.72;25.85;;;12.90;99.90;;;;;;5073930;28;20028;-81
2022/02/05 10:17:42;;;;;;;48.65;32.08;;;12.70;99.90;;;;;;5020032;28;20029;-81
2022/02/05 10:20:12;;;;;;;48.60;31.67;;;12.50;99.90;;;;;;5076086;28;20043;-82
2022/02/05 10:22:44;;;;;;;56.63;31.95;;;12.40;99.90;;;;;;5075001;28;20073;-81
2022/02/05 10:25:24;;;;;;;59.90;39.10;;;12.40;99.90;;;;;;5079866;28;20028;-82
2022/02/05 10:27:52;;;;;;;70.72;42.78;;;12.40;99.90;;;;;;5079710;28;20079;-82
2022/02/05 10:30:31;;;;;;;79.50;46.47;;;12.20;99.90;;;;;;5078229;28;20031;-82
2022/02/05 10:33:07;;;;;;;73.32;44.90;;;12.10;99.90;;;;;;5060554;28;20078;-82
2022/02/05 10:36:02;;;;;;;53.67;33.97;;;12.00;99.90;;;;;;5081901;28;20055;-82
2022/02/05 10:39:12;;;;;;;64.53;39.22;;;11.90;99.90;;;;;;5057113;28;20048;-81
2022/02/05 10:44:27;;;;;;;72.35;48.22;;;11.90;99.90;;;;;;5077912;28;20509;-82
2022/02/05 10:46:59;;;;;;;76.03;43.05;;;12.00;99.90;;;;;;5065130;28;20039;-83
2022/02/05 10:49:46;;;;;;;80.30;43.40;;;12.20;99.90;;;;;;5077479;28;20016;-83
2022/02/05 10:52:34;;;;;;;61.45;38.78;;;12.40;99.90;;;;;;5066150;28;20032;-82
2022/02/05 10:55:08;;;;;;;73.70;43.75;;;12.50;99.90;;;;;;5077826;28;20501;-82
2022/02/05 10:57:52;;;;;;;54.47;34.33;;;12.50;99.90;;;;;;5080702;28;20371;-82
2022/02/05 11:05:54;;;;;;;66.63;43.88;;;12.20;99.90;;;;;;5081818;28;20024;-81
2022/02/05 11:08:22;;;;;;;63.72;41.15;;;12.10;99.90;;;;;;5074317;28;20013;-81
2022/02/05 11:13:55;;;;;;;74.28;46.65;;;12.00;99.90;;;;;;5076386;28;20107;-81
2022/02/05 11:19:08;;;;;;;96.45;58.10;;;11.80;99.90;;;;;;5086358;28;20039;-81
2022/02/05 11:21:34;;;;;;;68.18;45.20;;;11.80;99.90;;;;;;5083980;28;20048;-82
2022/02/05 11:24:05;;;;;;;86.85;48.70;;;11.80;99.90;;;;;;5087683;28;20039;-82
2022/02/05 11:26:32;;;;;;;86.25;54.45;;;11.80;99.90;;;;;;5087118;28;20411;-81
2022/02/05 11:29:04;;;;;;;91.30;49.15;;;11.80;99.90;;;;;;5079823;28;20032;-82
2022/02/05 11:31:38;;;;;;;90.82;60.65;;;11.70;99.90;;;;;;5065774;28;20032;-81
2022/02/05 11:34:36;;;;;;;76.63;48.75;;;11.60;99.90;;;;;;5079012;28;20020;-81
2022/02/05 11:37:07;;;;;;;98.70;59.65;;;11.60;99.90;;;;;;5083965;28;20036;-81
2022/02/05 11:39:55;;;;;;;75.28;44.85;;;11.60;99.90;;;;;;5078284;28;20060;-83
2022/02/05 11:43:16;;;;;;;64.60;43.17;;;11.70;99.90;;;;;;5086134;28;20035;-81
2022/02/05 11:45:25;;;;;;;63.47;39.83;;;11.70;99.90;;;;;;5077454;28;20036;-82
2022/02/05 11:47:52;;;;;;;62.63;40.15;;;11.70;99.90;;;;;;5073260;28;20040;-81
2022/02/05 11:50:22;;;;;;;66.72;40.88;;;11.90;99.90;;;;;;5071459;28;20128;-82
2022/02/05 11:52:57;;;;;;;67.20;41.50;;;12.00;99.90;;;;;;5060955;28;20183;-83
2022/02/05 11:55:38;;;;;;;55.03;33.78;;;12.00;99.90;;;;;;5063758;28;20078;-82
2022/02/05 11:58:17;;;;;;;54.90;35.83;;;11.80;99.90;;;;;;5069978;28;20037;-82
2022/02/05 12:00:57;;;;;;;67.55;37.47;;;11.70;99.90;;;;;;5064940;28;20028;-82
2022/02/05 12:04:07;;;;;;;230.07;124.25;;;11.40;99.90;;;;;;5071375;28;20021;-82
2022/02/05 12:06:55;;;;;;;60.67;40.13;;;11.30;99.90;;;;;;5056091;28;20392;-82
2022/02/05 12:09:39;;;;;;;79.35;45.92;;;11.30;99.90;;;;;;5081278;28;20040;-82
2022/02/05 12:12:35;;;;;;;84.00;51.53;;;11.20;99.90;;;;;;5065465;28;20029;-81
2022/02/05 12:15:32;;;;;;;92.43;59.33;;;11.00;99.90;;;;;;5061072;28;20020;-81
2022/02/05 12:20:51;;;;;;;76.07;47.17;;;10.50;99.90;;;;;;5064546;28;20024;-84
2022/02/05 12:29:27;;;;;;;57.30;35.90;;;11.00;99.90;;;;;;5050640;28;20120;-84
2022/02/05 12:32:41;;;;;;;;;;;;;;;;;;;;;
2022/02/05 12:35:14;;;;;;;61.97;35.30;;;11.30;99.90;;;;;;5021837;28;20038;-85
2022/02/05 12:37:40;;;;;;;56.28;33.63;;;11.30;99.90;;;;;;5057176;28;20025;-83
2022/02/05 12:40:30;;;;;;;45.97;31.15;;;11.50;99.90;;;;;;5066421;28;20094;-84
2022/02/05 12:42:56;;;;;;;62.72;33.42;;;11.80;99.90;;;;;;5060208;28;20119;-83
2022/02/05 12:46:09;;;;;;;59.45;34.08;;;12.00;99.90;;;;;;5059053;28;20029;-84
2022/02/05 12:48:39;;;;;;;59.15;34.20;;;11.70;99.90;;;;;;5030832;28;20092;-84
2022/02/05 12:51:11;;;;;;;70.93;35.90;;;11.40;99.90;;;;;;5063363;28;20289;-84
2022/02/05 12:53:42;;;;;;;46.65;28.48;;;11.30;99.90;;;;;;5057094;28;20387;-83
2022/02/05 12:56:22;;;;;;;45.40;27.42;;;11.40;99.90;;;;;;5079374;28;20123;-84
2022/02/05 12:58:53;;;;;;;40.10;25.10;;;11.50;99.90;;;;;;5055951;28;20036;-83
2022/02/05 13:01:29;;;;;;;41.70;21.37;;;11.40;99.90;;;;;;5065666;28;20094;-84
2022/02/05 13:04:17;;;;;;;36.75;19.98;;;11.20;99.90;;;;;;5067401;28;20320;-83
2022/02/05 13:07:08;;;;;;;36.58;21.00;;;11.20;99.90;;;;;;5063094;28;20087;-82
2022/02/05 13:10:06;;;;;;;34.63;18.40;;;11.20;99.90;;;;;;5065623;28;20013;-82
2022/02/05 13:12:38;;;;;;;27.60;14.07;;;11.30;99.90;;;;;;5058356;28;20021;-82
2022/02/05 13:15:19;;;;;;;37.95;17.80;;;11.30;99.90;;;;;;5061469;28;20059;-81
2022/02/05 13:34:19;;;;;;;34.95;12.85;;;13.30;99.90;;;;;;5056521;28;20081;-84
2022/02/05 13:42:17;;;;;;;26.98;11.05;;;16.40;99.90;;;;;;5057394;28;20040;-85
2022/02/05 13:45:02;;;;;;;31.25;13.40;;;15.50;99.90;;;;;;5057689;28;20032;-84
2022/02/05 13:47:37;;;;;;;22.23;10.32;;;15.10;99.90;;;;;;5075314;28;20063;-84
2022/02/05 13:50:10;;;;;;;18.80;10.23;;;14.50;99.90;;;;;;5062788;28;20031;-83
2022/02/05 13:52:48;;;;;;;18.92;11.25;;;14.10;99.90;;;;;;5058850;28;20025;-83
2022/02/05 13:55:24;;;;;;;26.60;12.55;;;13.50;99.90;;;;;;5078573;28;20025;-84
2022/02/05 13:58:10;;;;;;;27.65;14.45;;;12.90;99.90;;;;;;5080871;28;20389;-82
2022/02/05 14:00:49;;;;;;;30.67;12.82;;;12.40;99.90;;;;;;5080987;28;20060;-82
2022/02/05 14:03:32;;;;;;;28.40;12.32;;;12.10;99.90;;;;;;5075173;28;20050;-83
2022/02/05 14:06:08;;;;;;;;;;;11.80;99.90;;;;;;5084081;28;20025;-84
2022/02/05 14:08:55;;;;;;;27.35;12.27;;;11.70;99.90;;;;;;5075899;28;20072;-83
2022/02/05 14:11:35;;;;;;;32.20;12.32;;;11.80;99.90;;;;;;5083208;28;20024;-82
2022/02/05 14:14:12;;;;;;;25.83;12.00;;;11.80;99.90;;;;;;5087435;28;20024;-83
2022/02/05 14:16:40;;;;;;;31.70;12.93;;;11.80;99.90;;;;;;5085335;28;20028;-83
2022/02/05 14:19:23;;;;;;;23.38;12.93;;;11.90;99.90;;;;;;5071956;28;20047;-83
2022/02/05 14:21:52;;;;;;;24.42;10.18;;;11.90;99.90;;;;;;5086166;28;20050;-84
2022/02/05 14:24:21;;;;;;;19.27;9.88;;;12.00;99.90;;;;;;5075887;28;20107;-82
2022/02/05 14:27:06;;;;;;;24.92;8.23;;;13.90;99.90;;;;;;5081555;28;20111;-83
2022/02/05 14:32:40;;;;;;;21.45;10.15;;;18.00;99.90;;;;;;5082847;28;20034;-83
2022/02/05 14:40:52;;;;;;;20.23;9.43;;;16.90;99.90;;;;;;5074325;28;20051;-83
2022/02/05 14:43:22;;;;;;;23.77;9.38;;;17.40;99.90;;;;;;5076744;28;20029;-83
2022/02/05 14:45:48;;;;;;;23.60;9.63;;;17.30;99.90;;;;;;5082606;28;20066;-83
2022/02/05 14:48:14;;;;;;;30.67;9.88;;;16.80;99.90;;;;;;5078504;28;20106;-84
2022/02/05 14:50:43;;;;;;;19.40;9.43;;;16.40;99.90;;;;;;5062054;28;20248;-82
2022/02/05 14:53:09;;;;;;;27.08;11.65;;;15.50;99.90;;;;;;5073324;28;20028;-83
2022/02/05 14:55:35;;;;;;;24.95;9.57;;;14.60;99.90;;;;;;5060847;28;20383;-83
2022/02/05 14:58:01;;;;;;;22.35;10.80;;;14.00;99.90;;;;;;5060466;28;20024;-83
2022/02/05 15:00:27;;;;;;;27.85;11.48;;;13.70;99.90;;;;;;5078585;28;20039;-83
2022/02/05 15:03:01;;;;;;;27.48;12.90;;;13.60;99.90;;;;;;5069848;28;20017;-84
2022/02/05 15:05:49;;;;;;;28.77;11.82;;;13.40;99.90;;;;;;5076392;28;20028;-84
2022/02/05 15:08:15;;;;;;;23.48;12.10;;;13.10;99.90;;;;;;5070883;28;20080;-87
2022/02/05 15:10:44;;;;;;;23.73;11.48;;;13.20;99.90;;;;;;5096063;28;20016;-92
2022/02/05 15:13:15;;;;;;;25.83;10.98;;;13.50;99.90;;;;;;5096062;28;20031;-93
2022/02/05 15:15:51;;;;;;;31.73;10.98;;;13.90;99.90;;;;;;5083430;28;20029;-90
2022/02/05 15:18:17;;;;;;;27.08;10.70;;;14.40;99.90;;;;;;5082495;28;20486;-87
2022/02/05 15:20:43;;;;;;;27.20;10.70;;;14.70;99.90;;;;;;5073253;28;20040;-90
2022/02/05 15:23:09;;;;;;;28.85;10.75;;;15.30;99.90;;;;;;5088236;28;20025;-89
2022/02/05 15:29:00;;;;;;;19.92;8.95;;;16.50;99.90;;;;;;5063824;28;20079;-92
2022/02/05 15:31:32;;;;;;;22.38;10.38;;;17.00;99.90;;;;;;5058714;28;20025;-83
2022/02/05 15:34:04;;;;;;;21.55;10.93;;;17.20;99.90;;;;;;5085865;28;20039;-83
2022/02/05 15:44:07;;;;;;;21.02;12.23;;;14.50;99.90;;;;;;5075040;28;20428;-84
2022/02/05 15:46:34;;;;;;;22.75;15.23;;;13.60;99.90;;;;;;5059224;28;20079;-82
2022/02/05 15:49:00;;;;;;;25.75;13.07;;;13.10;99.90;;;;;;5060520;28;20150;-83
2022/02/05 15:51:29;;;;;;;30.88;18.38;;;12.60;99.90;;;;;;5044439;28;20123;-84
2022/02/05 15:54:02;;;;;;;33.50;17.20;;;12.30;99.90;;;;;;5065060;28;20418;-83
2022/02/05 15:59:04;;;;;;;37.05;16.73;;;12.00;99.90;;;;;;5054528;28;19917;-80
2022/02/05 16:01:30;;;;;;;25.77;17.13;;;11.80;99.90;;;;;;5057994;28;20421;-83
2022/02/05 16:03:56;;;;;;;31.45;17.38;;;11.50;99.90;;;;;;5055295;28;20047;-81
2022/02/05 16:06:25;;;;;;;29.70;18.30;;;11.30;99.90;;;;;;5057013;28;20028;-83
2022/02/05 16:08:54;;;;;;;38.33;24.02;;;11.20;99.90;;;;;;5054725;28;20021;-84
2022/02/05 16:11:20;;;;;;;37.05;21.27;;;11.00;99.90;;;;;;5063130;28;20073;-82
2022/02/05 16:13:46;;;;;;;34.10;19.10;;;10.80;99.90;;;;;;5059255;28;20037;-83
2022/02/05 16:16:12;;;;;;;28.50;13.90;;;10.70;99.90;;;;;;5065730;28;20487;-84
2022/02/05 16:18:38;;;;;;;26.73;16.88;;;10.60;99.90;;;;;;5056802;28;20507;-84
2022/02/05 16:21:05;;;;;;;24.63;14.93;;;10.50;99.90;;;;;;5062116;28;20025;-84
2022/02/05 16:23:34;;;;;;;28.13;17.02;;;10.40;99.90;;;;;;5068479;28;20029;-84
2022/02/05 16:26:03;;;;;;;28.92;16.92;;;10.30;99.90;;;;;;5064558;28;20024;-80
2022/02/05 16:28:32;;;;;;;30.40;20.35;;;10.20;99.90;;;;;;5049557;28;20021;-83
2022/02/05 16:31:01;;;;;;;33.45;22.92;;;10.20;99.90;;;;;;5062496;28;20051;-80
2022/02/05 16:33:31;;;;;;;37.53;21.80;;;10.20;99.90;;;;;;5067575;28;20023;-80
2022/02/05 16:36:10;;;;;;;31.52;17.80;;;10.20;99.90;;;;;;5062021;28;20028;-83
2022/02/05 16:38:53;;;;;;;;;;;;;;;;;;;;;
2022/02/05 16:41:19;;;;;;;45.85;30.48;;;10.20;99.90;;;;;;5064636;28;20027;-84
2022/02/05 16:43:47;;;;;;;70.55;55.75;;;10.20;99.90;;;;;;5060618;28;20115;-83
2022/02/05 16:46:28;;;;;;;43.10;31.00;;;10.20;99.90;;;;;;5016422;28;1459899;-83
2022/02/05 16:48:54;;;;;;;54.90;39.17;;;10.20;99.90;;;;;;5085050;28;20025;-82
2022/02/05 16:51:20;;;;;;;72.00;50.58;;;10.10;99.90;;;;;;5086927;28;20390;-82
2022/02/05 16:53:52;;;;;;;56.13;35.20;;;10.10;99.90;;;;;;5078727;28;20032;-82
2022/02/05 16:56:18;;;;;;;59.47;37.67;;;10.10;99.90;;;;;;5084210;28;20020;-82
2022/02/05 16:58:44;;;;;;;55.33;30.55;;;10.10;99.90;;;;;;5089170;28;20047;-83
2022/02/05 17:01:10;;;;;;;38.80;26.90;;;10.10;99.90;;;;;;5086456;28;20501;-81
2022/02/05 17:03:36;;;;;;;40.38;25.75;;;10.10;99.90;;;;;;5087060;28;20025;-81
2022/02/05 17:06:03;;;;;;;43.72;26.60;;;10.10;99.90;;;;;;5086051;28;20089;-83
2022/02/05 17:08:33;;;;;;;39.88;27.83;;;10.10;99.90;;;;;;5073528;28;20023;-85
2022/02/05 17:11:00;;;;;;;45.88;30.17;;;10.00;99.90;;;;;;5086473;28;20371;-83
2022/02/05 17:13:28;;;;;;;47.35;34.28;;;10.00;99.90;;;;;;5074634;28;20467;-83
2022/02/05 17:15:55;;;;;;;50.95;31.65;;;10.00;99.90;;;;;;5066975;28;20028;-83
2022/02/05 17:18:25;;;;;;;45.95;30.27;;;10.00;99.90;;;;;;5080774;28;20548;-88
2022/02/05 17:20:55;;;;;;;51.38;34.13;;;9.90;99.90;;;;;;5084201;28;20020;-86
2022/02/05 17:23:26;;;;;;;49.03;32.78;;;9.90;99.90;;;;;;5073996;28;20020;-82
2022/02/05 17:25:53;;;;;;;55.72;32.28;;;9.90;99.90;;;;;;5084532;28;20032;-86
2022/02/05 17:28:19;;;;;;;46.53;33.30;;;9.90;99.90;;;;;;5078033;28;20032;-87
2022/02/05 17:30:45;;;;;;;44.58;31.42;;;9.80;99.90;;;;;;5070713;28;20031;-88
2022/02/05 17:33:12;;;;;;;45.05;30.25;;;9.80;99.90;;;;;;5082391;28;20625;-88
2022/02/05 17:35:42;;;;;;;51.35;32.33;;;9.80;99.90;;;;;;5076041;28;20422;-88
2022/02/05 17:38:17;;;;;;;43.42;29.90;;;9.80;99.90;;;;;;5082399;28;20067;-88
2022/02/05 17:40:45;;;;;;;47.22;30.60;;;9.80;99.90;;;;;;5068218;28;20037;-88
2022/02/05 17:43:11;;;;;;;43.83;28.88;;;9.80;99.90;;;;;;5077232;28;20399;-88
2022/02/05 17:45:40;;;;;;;49.47;30.40;;;9.70;99.90;;;;;;5082870;28;20021;-88
2022/02/05 17:48:05;;;;;;;39.30;27.10;;;9.70;99.90;;;;;;5096293;28;20043;-89
2022/02/05 17:50:32;;;;;;;43.25;28.83;;;9.70;99.90;;;;;;5078125;28;20085;-88
2022/02/05 17:52:58;;;;;;;42.25;28.52;;;9.60;99.90;;;;;;5062214;28;20024;-89
2022/02/05 17:55:46;;;;;;;41.65;29.15;;;9.60;99.90;;;;;;5071417;28;20031;-89
2022/02/05 17:58:13;;;;;;;44.05;30.00;;;9.60;99.90;;;;;;5066044;28;20478;-89
2022/02/05 18:00:41;;;;;;;77.93;49.80;;;9.50;99.90;;;;;;5081850;28;20169;-89
2022/02/05 18:03:07;;;;;;;78.22;47.05;;;9.50;99.90;;;;;;5087474;28;20016;-87
2022/02/05 18:05:47;;;;;;;44.78;31.50;;;9.40;99.90;;;;;;5085122;28;20636;-87
2022/02/05 18:08:58;;;;;;;52.47;33.92;;;9.40;99.90;;;;;;5081126;28;20115;-87
2022/02/05 18:11:36;;;;;;;176.98;92.78;;;9.30;99.90;;;;;;5083923;28;20035;-88
2022/02/05 18:14:31;;;;;;;142.15;78.32;;;9.20;99.90;;;;;;5071889;28;20085;-88
2022/02/05 18:16:56;;;;;;;63.50;39.58;;;9.00;99.90;;;;;;5079636;28;20042;-88
2022/02/05 18:19:24;;;;;;;81.68;50.65;;;8.90;99.90;;;;;;5077954;28;20041;-89
2022/02/05 18:21:58;;;;;;;67.35;45.63;;;8.90;99.90;;;;;;5081827;28;20032;-88
2022/02/05 18:24:30;;;;;;;59.40;40.22;;;8.90;99.90;;;;;;5076480;28;20429;-89
2022/02/05 18:27:08;;;;;;;56.65;43.83;;;8.90;99.90;;;;;;5078167;28;20028;-88
2022/02/05 18:29:34;;;;;;;96.88;66.05;;;8.80;99.90;;;;;;5086658;28;20024;-89
2022/02/05 18:32:02;;;;;;;70.68;41.17;;;8.80;99.90;;;;;;5082638;28;20083;-88
2022/02/05 18:34:41;;;;;;;58.45;40.08;;;8.70;99.90;;;;;;5081734;28;20073;-89
2022/02/05 18:37:33;;;;;;;51.40;22.80;;;8.70;99.90;;;;;;5060919;28;20434;-88
2022/02/05 18:40:02;;;;;;;56.40;33.60;;;8.60;99.90;;;;;;5079929;28;20036;-88
2022/02/05 18:42:31;;;;;;;63.92;40.55;;;8.60;99.90;;;;;;5086726;28;20058;-89
2022/02/05 18:45:01;;;;;;;47.90;30.30;;;8.50;99.90;;;;;;5092896;28;20028;-89
2022/02/05 18:47:32;;;;;;;43.75;29.88;;;8.50;99.90;;;;;;5067995;28;20052;-89
2022/02/05 18:50:20;;;;;;;33.63;19.48;;;8.40;99.90;;;;;;5064562;28;20043;-88
2022/02/05 18:52:46;;;;;;;76.53;53.20;;;8.30;99.90;;;;;;5063279;28;20025;-90
2022/02/05 18:55:14;;;;;;;93.97;60.03;;;8.20;99.90;;;;;;5075930;28;20029;-89
2022/02/05 18:57:41;;;;;;;79.35;52.30;;;8.10;99.90;;;;;;5076379;28;20078;-90
2022/02/05 19:00:15;;;;;;;58.45;43.13;;;8.00;99.90;;;;;;5087260;28;20204;-90
2022/02/05 19:03:42;;;;;;;210.82;103.20;;;7.80;99.90;;;;;;5069520;28;20021;-90
2022/02/05 19:19:09;;;;;;;77.40;44.45;;;7.40;99.90;;;;;;5056892;28;20115;-90
2022/02/05 19:21:36;;;;;;;59.22;36.42;;;7.40;99.90;;;;;;5069568;28;20024;-88
2022/02/05 19:27:33;;;;;;;74.55;42.22;;;7.30;99.90;;;;;;5066010;28;20078;-93
2022/02/05 19:30:26;;;;;;;39.33;28.35;;;7.20;99.90;;;;;;5082107;28;20032;-93
2022/02/05 19:32:59;;;;;;;;;;;7.10;99.90;;;;;;5095160;28;20042;-92
2022/02/05 19:35:24;;;;;;;34.38;25.70;;;7.10;99.90;;;;;;5076820;28;19967;-92
2022/02/05 19:38:00;;;;;;;37.28;27.98;;;7.00;99.90;;;;;;5065273;28;20098;-92
2022/02/05 19:40:27;;;;;;;42.05;32.53;;;7.00;99.90;;;;;;5069051;28;20739;-92
2022/02/05 19:42:56;;;;;;;37.08;30.80;;;7.00;99.90;;;;;;5074162;28;20040;-91
2022/02/05 19:45:27;;;;;;;50.78;34.55;;;7.00;99.90;;;;;;5081995;28;20028;-92
2022/02/05 19:48:08;;;;;;;48.22;34.72;;;6.90;99.90;;;;;;5096259;28;20052;-92
2022/02/05 19:50:34;;;;;;;44.53;31.92;;;7.00;99.90;;;;;;5076265;28;20029;-92
2022/02/05 19:53:00;;;;;;;43.13;31.30;;;6.90;99.90;;;;;;5074313;28;20040;-88
2022/02/05 19:55:28;;;;;;;38.65;27.88;;;6.90;99.90;;;;;;5079415;28;20032;-89
2022/02/05 19:57:55;;;;;;;35.17;26.13;;;6.90;99.90;;;;;;5071418;28;20487;-91
2022/02/05 20:00:21;;;;;;;30.77;23.73;;;6.90;99.90;;;;;;5070693;28;20029;-90
2022/02/05 20:02:56;;;;;;;27.05;21.42;;;6.80;99.90;;;;;;5076395;28;20036;-93
2022/02/05 20:10:29;;;;;;;21.40;16.77;;;6.70;99.90;;;;;;5089785;28;20013;-90
2022/02/05 20:12:57;;;;;;;24.88;18.25;;;6.70;99.90;;;;;;5075828;28;20441;-90
2022/02/05 20:15:23;;;;;;;26.63;18.88;;;6.70;99.90;;;;;;5073044;28;20029;-88
2022/02/05 20:17:51;;;;;;;26.10;18.35;;;6.60;99.90;;;;;;5082779;28;20058;-87
2022/02/05 20:20:18;;;;;;;26.13;18.77;;;6.50;99.90;;;;;;5068438;28;20025;-84
2022/02/05 20:22:44;;;;;;;36.80;20.98;;;6.60;99.90;;;;;;5072060;28;20024;-81
2022/02/05 20:25:21;;;;;;;33.45;21.17;;;6.50;99.90;;;;;;5064856;28;20119;-83
2022/02/05 20:30:53;;;;;;;27.77;20.55;;;6.50;99.90;;;;;;5067734;28;20121;-89
2022/02/05 20:33:24;;;;;;;30.60;19.40;;;6.40;99.90;;;;;;5073089;28;20029;-89
2022/02/05 20:36:00;;;;;;;25.23;18.05;;;6.40;99.90;;;;;;5067336;28;20020;-88
2022/02/05 20:38:27;;;;;;;28.35;19.95;;;6.40;99.90;;;;;;5059713;28;20395;-88
2022/02/05 20:40:54;;;;;;;74.32;52.30;;;6.40;99.90;;;;;;5061715;28;20491;-87
2022/02/05 20:43:20;;;;;;;49.40;34.80;;;6.40;99.90;;;;;;5061276;28;20498;-88
2022/02/05 20:45:47;;;;;;;35.13;21.90;;;6.30;99.90;;;;;;5074754;28;20021;-89
2022/02/05 20:48:14;;;;;;;19.52;16.27;;;6.40;99.90;;;;;;5084108;28;20487;-86